Time;durP1;ratioP1;P1;durP2;ratioP2;P2;SDS_P1;SDS_P2;PMS_P1;PMS_P2;Temp;Humidity;BMP_temperature;BMP_pressure;BME280_temperature;BME280_humidity;BME280_pressure;Samples;Min_cycle;Max_cycle;Signal;HPM_P1;HPM_P2
2021/12/17 00:00:45;;;;;;;13.03;8.10;;;7.30;99.90;;;;;;5069749;28;20961;-44
2021/12/17 00:03:18;;;;;;;15.37;8.70;;;7.30;99.90;;;;;;5061817;28;20227;-44
2021/12/17 00:08:38;;;;;;;17.33;9.40;;;7.30;99.90;;;;;;5060967;28;20215;-46
2021/12/17 00:11:06;;;;;;;14.87;9.10;;;7.30;99.90;;;;;;5055243;28;20555;-47
2021/12/17 00:13:34;;;;;;;15.40;9.10;;;7.30;99.90;;;;;;5078737;28;20567;-44
2021/12/17 00:16:01;;;;;;;16.63;9.77;;;7.30;99.90;;;;;;5071018;28;20282;-45
2021/12/17 00:18:35;;;;;;;17.53;10.50;;;7.30;99.90;;;;;;5065527;28;20209;-45
2021/12/17 00:48:39;;;;;;;12.97;8.13;;;7.40;99.90;;;;;;5070378;28;20205;-43
2021/12/17 00:51:46;;;;;;;12.73;8.67;;;7.40;99.90;;;;;;5060445;28;20832;-43
2021/12/17 00:54:20;;;;;;;14.90;7.73;;;7.40;99.90;;;;;;5077705;28;20653;-45
2021/12/17 00:56:50;;;;;;;14.63;8.33;;;7.40;99.90;;;;;;5055474;28;20315;-42
2021/12/17 00:59:17;;;;;;;12.50;7.50;;;7.40;99.90;;;;;;5070036;28;20216;-41
2021/12/17 01:01:44;;;;;;;11.70;7.53;;;7.40;99.90;;;;;;5067196;28;20214;-42
2021/12/17 01:04:12;;;;;;;14.43;8.07;;;7.40;99.90;;;;;;5062681;28;20291;-42
2021/12/17 01:06:40;;;;;;;14.30;6.83;;;7.40;99.90;;;;;;5057503;28;20218;-43
2021/12/17 01:09:09;;;;;;;13.90;7.47;;;7.40;99.90;;;;;;5069825;28;20222;-41
2021/12/17 01:11:37;;;;;;;12.73;7.00;;;7.40;99.90;;;;;;5053217;28;20214;-42
2021/12/17 01:14:24;;;;;;;13.77;7.57;;;7.40;99.90;;;;;;5077561;28;20209;-44
2021/12/17 01:16:57;;;;;;;12.70;6.83;;;7.50;99.90;;;;;;5069766;28;20275;-42
2021/12/17 01:20:07;;;;;;;9.10;6.10;;;7.50;99.90;;;;;;5063853;28;20222;-44
2021/12/17 01:22:54;;;;;;;10.03;6.23;;;7.50;99.90;;;;;;5050879;28;20210;-43
2021/12/17 01:35:19;;;;;;;9.30;6.27;;;7.50;99.90;;;;;;5067768;28;20199;-43
2021/12/17 01:43:26;;;;;;;9.20;5.63;;;7.40;99.90;;;;;;5064705;28;20186;-42
2021/12/17 01:45:53;;;;;;;10.10;5.07;;;7.40;99.90;;;;;;5070456;28;21151;-45
2021/12/17 01:48:28;;;;;;;12.43;6.10;;;7.40;99.90;;;;;;5062143;28;20210;-41
2021/12/17 01:56:38;;;;;;;8.60;5.93;;;7.40;99.90;;;;;;5066772;28;20343;-42
2021/12/17 01:59:21;;;;;;;8.97;5.40;;;7.40;99.90;;;;;;5056290;28;20236;-43
2021/12/17 02:01:48;;;;;;;10.23;5.30;;;7.40;99.90;;;;;;5080494;28;20781;-46
2021/12/17 02:04:16;;;;;;;8.87;4.93;;;7.40;99.90;;;;;;5076031;28;20198;-44
2021/12/17 02:06:43;;;;;;;6.57;4.23;;;7.40;99.90;;;;;;5054038;28;20214;-43
2021/12/17 02:09:26;;;;;;;7.17;4.73;;;7.40;99.90;;;;;;5077366;28;20226;-45
2021/12/17 02:12:18;;;;;;;7.77;4.93;;;7.40;99.90;;;;;;5063574;28;20906;-45
2021/12/17 02:20:45;;;;;;;8.70;5.23;;;7.40;99.90;;;;;;5063074;28;20687;-42
2021/12/17 02:28:48;;;;;;;8.27;5.37;;;7.50;99.90;;;;;;5059485;28;20191;-44
2021/12/17 02:31:25;;;;;;;8.83;5.10;;;7.50;99.90;;;;;;5063917;28;20734;-43
2021/12/17 02:33:52;;;;;;;9.37;5.00;;;7.40;99.90;;;;;;5072312;28;20851;-42
2021/12/17 02:36:24;;;;;;;8.33;5.07;;;7.40;99.90;;;;;;5072970;28;20302;-45
2021/12/17 02:38:54;;;;;;;7.23;4.83;;;7.40;99.90;;;;;;5056682;28;20202;-42
2021/12/17 02:47:08;;;;;;;6.23;4.30;;;7.30;99.90;;;;;;5072763;28;20618;-42
2021/12/17 02:49:36;;;;;;;6.67;4.20;;;7.30;99.90;;;;;;5065533;28;20216;-44
2021/12/17 02:52:06;;;;;;;5.73;3.80;;;7.30;99.90;;;;;;5065077;28;20206;-42
2021/12/17 02:54:35;;;;;;;8.33;4.40;;;7.30;99.90;;;;;;5056833;28;20209;-43
2021/12/17 02:57:02;;;;;;;8.77;4.43;;;7.30;99.90;;;;;;5067472;28;20182;-46
2021/12/17 02:59:29;;;;;;;8.47;4.77;;;7.30;99.90;;;;;;5070510;28;20925;-41
2021/12/17 03:01:57;;;;;;;6.70;4.50;;;7.30;99.90;;;;;;5063350;28;20198;-43
2021/12/17 03:04:27;;;;;;;6.47;3.97;;;7.30;99.90;;;;;;5067563;28;20206;-44
2021/12/17 03:06:54;;;;;;;5.50;4.00;;;7.30;99.90;;;;;;5061920;28;20619;-42
2021/12/17 03:09:36;;;;;;;5.57;4.00;;;7.30;99.90;;;;;;5056026;28;20202;-44
2021/12/17 03:12:08;;;;;;;6.83;4.40;;;7.40;99.90;;;;;;5070628;28;20214;-45
2021/12/17 03:14:41;;;;;;;7.57;4.63;;;7.30;99.90;;;;;;5067240;28;20728;-42
2021/12/17 03:17:15;;;;;;;7.63;4.83;;;7.30;99.90;;;;;;5065066;28;20215;-42
2021/12/17 03:25:08;;;;;;;5.93;4.07;;;7.30;99.90;;;;;;5061343;28;20198;-44
2021/12/17 03:27:36;;;;;;;5.57;3.83;;;7.30;99.90;;;;;;5068200;28;20206;-43
2021/12/17 03:30:03;;;;;;;4.37;3.20;;;7.30;99.90;;;;;;5060652;28;21005;-43
2021/12/17 03:32:30;;;;;;;4.23;3.00;;;7.20;99.90;;;;;;5064539;28;20301;-47
2021/12/17 03:34:57;;;;;;;3.10;2.53;;;7.20;99.90;;;;;;5060922;28;20190;-44
2021/12/17 03:37:24;;;;;;;3.50;2.27;;;7.20;99.90;;;;;;5071953;28;20210;-48
2021/12/17 03:39:51;;;;;;;3.07;2.43;;;7.20;99.90;;;;;;5060908;28;20310;-42
2021/12/17 03:42:19;;;;;;;4.90;2.47;;;7.10;99.90;;;;;;5069985;28;20765;-41
2021/12/17 03:44:46;;;;;;;3.50;2.23;;;7.10;99.90;;;;;;5065249;28;20202;-41
2021/12/17 03:47:17;;;;;;;3.70;2.80;;;7.10;99.90;;;;;;5076074;28;20217;-41
2021/12/17 03:49:54;;;;;;;3.57;2.50;;;7.10;99.90;;;;;;5058011;28;20229;-44
2021/12/17 03:52:21;;;;;;;4.30;2.53;;;7.10;99.90;;;;;;5074087;28;20197;-41
2021/12/17 03:54:48;;;;;;;3.60;2.50;;;7.10;99.90;;;;;;5054349;28;20198;-44
2021/12/17 03:57:18;;;;;;;4.37;3.13;;;7.10;99.90;;;;;;5073103;28;20210;-42
2021/12/17 03:59:49;;;;;;;4.23;2.90;;;7.10;99.90;;;;;;5063318;28;20226;-44
2021/12/17 04:02:20;;;;;;;4.27;2.63;;;7.00;99.90;;;;;;5063741;28;20207;-43
2021/12/17 04:04:47;;;;;;;4.63;2.80;;;7.00;99.90;;;;;;5060482;28;20206;-41
2021/12/17 04:07:32;;;;;;;6.53;2.87;;;7.00;99.90;;;;;;5083773;28;20224;-42
2021/12/17 04:10:09;;;;;;;6.47;3.20;;;7.00;99.90;;;;;;5082178;28;20217;-43
2021/12/17 04:12:47;;;;;;;5.37;2.30;;;7.00;99.90;;;;;;5056973;28;20256;-41
2021/12/17 04:15:16;;;;;;;4.63;2.40;;;6.90;99.90;;;;;;5067997;28;20248;-41
2021/12/17 04:17:46;;;;;;;3.00;1.80;;;6.90;99.90;;;;;;5069881;28;20244;-42
2021/12/17 04:20:14;;;;;;;3.37;1.93;;;6.80;99.90;;;;;;5062991;28;21787;-40
2021/12/17 04:22:40;;;;;;;2.20;2.00;;;6.80;99.90;;;;;;5081440;28;20198;-42
2021/12/17 04:25:07;;;;;;;3.83;2.00;;;6.80;99.90;;;;;;5079894;28;20274;-41
2021/12/17 04:27:35;;;;;;;4.00;2.17;;;6.70;99.90;;;;;;5066166;28;20214;-42
2021/12/17 04:30:03;;;;;;;3.80;1.87;;;6.80;99.90;;;;;;5067303;28;20235;-42
2021/12/17 04:32:31;;;;;;;3.80;2.30;;;6.70;99.90;;;;;;5063169;28;20195;-42
2021/12/17 04:34:58;;;;;;;3.60;2.10;;;6.70;99.90;;;;;;5061812;28;20855;-41
2021/12/17 04:37:34;;;;;;;3.70;2.40;;;6.70;99.90;;;;;;5067694;28;20198;-44
2021/12/17 04:40:02;;;;;;;2.63;2.10;;;6.70;99.90;;;;;;5068247;28;20230;-42
2021/12/17 04:42:43;;;;;;;5.80;3.43;;;6.70;99.90;;;;;;5056926;28;20207;-41
2021/12/17 04:45:11;;;;;;;4.20;2.60;;;6.70;99.90;;;;;;5068606;28;20194;-41
2021/12/17 04:58:56;;;;;;;6.60;3.70;;;6.70;99.90;;;;;;5047391;28;20233;-47
2021/12/17 05:01:23;;;;;;;8.10;3.73;;;6.70;99.90;;;;;;5073845;28;20271;-43
2021/12/17 05:03:52;;;;;;;7.23;3.67;;;6.70;99.90;;;;;;5065386;28;20186;-42
2021/12/17 05:06:19;;;;;;;8.83;4.03;;;6.70;99.90;;;;;;5060440;28;20226;-42
2021/12/17 05:09:00;;;;;;;6.63;4.00;;;6.70;99.90;;;;;;5058719;28;20209;-43
2021/12/17 05:18:13;;;;;;;8.30;4.20;;;6.70;99.90;;;;;;5074197;28;20556;-43
2021/12/17 05:19:54;;;;;;;8.33;3.97;;;6.70;99.90;;;;;;5054742;28;20217;-46
2021/12/17 05:22:22;;;;;;;6.53;4.13;;;6.70;99.90;;;;;;5073603;28;20560;-43
2021/12/17 05:24:49;;;;;;;9.83;4.57;;;6.70;99.90;;;;;;5061006;28;20272;-42
2021/12/17 05:27:16;;;;;;;13.10;5.73;;;6.70;99.90;;;;;;5066278;28;20205;-43
2021/12/17 05:30:10;;;;;;;11.13;5.80;;;6.70;99.90;;;;;;5063686;28;20313;-41
2021/12/17 05:32:37;;;;;;;10.40;5.53;;;6.70;99.90;;;;;;5065730;28;20194;-41
2021/12/17 05:35:06;;;;;;;10.20;4.90;;;6.70;99.90;;;;;;5070197;28;20206;-44
2021/12/17 05:37:32;;;;;;;12.87;5.27;;;6.70;99.90;;;;;;5060227;28;20726;-41
2021/12/17 05:39:59;;;;;;;14.67;5.60;;;6.70;99.90;;;;;;5068787;28;20255;-42
2021/12/17 05:42:26;;;;;;;11.43;5.20;;;6.70;99.90;;;;;;5067422;28;20248;-41
2021/12/17 05:45:07;;;;;;;12.07;4.83;;;6.70;99.90;;;;;;5059526;28;20290;-42
2021/12/17 05:47:34;;;;;;;13.00;5.53;;;6.70;99.90;;;;;;5071957;28;20217;-41
2021/12/17 05:50:00;;;;;;;15.30;6.60;;;6.70;99.90;;;;;;5069179;28;20301;-47
2021/12/17 05:52:29;;;;;;;11.67;5.53;;;6.60;99.90;;;;;;5067061;28;20211;-42
2021/12/17 05:54:56;;;;;;;13.90;5.93;;;6.60;99.90;;;;;;5066837;28;20210;-44
2021/12/17 05:57:22;;;;;;;13.07;5.50;;;6.60;99.90;;;;;;5063591;28;20234;-41
2021/12/17 05:59:50;;;;;;;9.20;4.17;;;6.60;99.90;;;;;;5060466;28;20222;-42
2021/12/17 06:02:19;;;;;;;10.67;5.13;;;6.70;99.90;;;;;;5055202;28;20222;-41
2021/12/17 06:04:48;;;;;;;10.57;4.70;;;6.60;99.90;;;;;;5072737;28;20626;-44
2021/12/17 06:07:25;;;;;;;9.87;4.93;;;6.60;99.90;;;;;;5055479;28;20211;-47
2021/12/17 06:09:54;;;;;;;6.10;4.10;;;6.60;99.90;;;;;;5058723;28;20295;-42
2021/12/17 06:12:23;;;;;;;6.33;3.43;;;6.70;99.90;;;;;;5067808;28;20269;-42
2021/12/17 06:14:50;;;;;;;5.40;3.13;;;6.60;99.90;;;;;;5045843;28;20206;-43
2021/12/17 06:17:17;;;;;;;5.87;3.50;;;6.60;99.90;;;;;;5055067;28;20929;-41
2021/12/17 06:19:46;;;;;;;6.73;3.60;;;6.60;99.90;;;;;;5065480;28;20588;-43
2021/12/17 06:22:15;;;;;;;5.80;3.57;;;6.60;99.90;;;;;;5068661;28;20317;-41
2021/12/17 06:24:45;;;;;;;6.03;3.73;;;6.50;99.90;;;;;;5065859;28;20226;-41
2021/12/17 06:27:15;;;;;;;7.63;4.20;;;6.60;99.90;;;;;;5072467;28;20222;-43
2021/12/17 06:29:42;;;;;;;6.90;4.07;;;6.60;99.90;;;;;;5082408;28;20220;-43
2021/12/17 06:32:14;;;;;;;7.30;4.50;;;6.60;99.90;;;;;;5056215;28;20203;-42
2021/12/17 06:34:41;;;;;;;9.23;4.97;;;6.60;99.90;;;;;;5072705;28;20285;-41
2021/12/17 06:37:08;;;;;;;13.33;5.00;;;6.60;99.90;;;;;;5072913;28;20677;-44
2021/12/17 06:39:35;;;;;;;9.53;5.20;;;6.70;99.90;;;;;;5074180;28;20262;-41
2021/12/17 06:42:03;;;;;;;11.83;6.03;;;6.70;99.90;;;;;;5060807;28;20218;-45
2021/12/17 06:44:32;;;;;;;12.20;5.60;;;6.70;99.90;;;;;;5075541;28;20418;-44
2021/12/17 06:47:03;;;;;;;9.00;5.10;;;6.70;99.90;;;;;;5070844;28;20206;-41
2021/12/17 06:49:47;;;;;;;12.10;6.97;;;6.70;99.90;;;;;;5070759;28;20217;-42
2021/12/17 06:55:45;;;;;;;11.47;5.77;;;6.70;99.90;;;;;;5052625;28;20210;-42
2021/12/17 06:59:01;;;;;;;9.17;5.03;;;6.70;99.90;;;;;;5073786;28;20202;-41
2021/12/17 07:11:49;;;;;;;6.70;4.33;;;6.60;99.90;;;;;;5126757;27;21107;-40
2021/12/17 07:17:17;;;;;;;6.23;4.47;;;6.50;99.90;;;;;;5098819;27;20224;-43
2021/12/17 07:22:49;;;;;;;8.27;4.70;;;6.50;99.90;;;;;;5101903;27;20193;-43
2021/12/17 07:28:10;;;;;;;10.47;5.40;;;6.40;99.90;;;;;;5104643;27;20296;-42
2021/12/17 07:33:36;;;;;;;9.30;5.10;;;6.40;99.90;;;;;;5092150;27;20225;-43
2021/12/17 07:36:38;;;;;;;6.83;4.33;;;6.30;99.90;;;;;;5103240;27;20204;-45
2021/12/17 07:39:04;;;;;;;6.60;3.70;;;6.30;99.90;;;;;;5111752;27;20205;-44
2021/12/17 07:41:50;;;;;;;5.67;3.73;;;6.30;99.90;;;;;;5102972;27;21006;-43
2021/12/17 07:44:36;;;;;;;4.43;3.27;;;6.20;99.90;;;;;;5098003;27;20214;-42
2021/12/17 07:47:21;;;;;;;5.00;3.47;;;6.20;99.90;;;;;;5089939;27;20720;-43
2021/12/17 07:50:11;;;;;;;5.47;2.83;;;6.20;99.90;;;;;;5108637;27;20877;-43
2021/12/17 07:52:56;;;;;;;2.77;2.17;;;6.20;99.90;;;;;;5105843;27;20205;-42
2021/12/17 07:55:23;;;;;;;2.77;2.03;;;6.10;99.90;;;;;;5102258;27;20216;-43
2021/12/17 07:57:51;;;;;;;5.50;1.97;;;6.20;99.90;;;;;;5090832;27;20238;-42
2021/12/17 08:00:25;;;;;;;2.83;1.90;;;6.20;99.90;;;;;;5095377;27;21919;-41
2021/12/17 08:02:59;;;;;;;2.73;2.03;;;6.20;99.90;;;;;;5102932;27;20734;-44
2021/12/17 08:05:44;;;;;;;3.73;2.27;;;6.20;99.90;;;;;;5109935;27;20264;-45
2021/12/17 08:08:12;;;;;;;5.80;2.80;;;6.10;99.90;;;;;;5106620;27;20208;-42
2021/12/17 08:10:40;;;;;;;6.10;3.07;;;6.20;99.90;;;;;;5109566;27;20229;-44
2021/12/17 08:13:12;;;;;;;5.77;3.40;;;6.20;99.90;;;;;;5129033;27;20201;-46
2021/12/17 08:15:48;;;;;;;6.83;3.80;;;6.10;99.90;;;;;;5097394;27;20205;-41
2021/12/17 08:18:27;;;;;;;6.57;4.40;;;6.10;99.90;;;;;;5115980;27;20204;-44
2021/12/17 08:26:40;;;;;;;12.97;7.60;;;6.20;99.90;;;;;;5093607;27;20216;-42
2021/12/17 08:29:32;;;;;;;12.80;8.33;;;6.10;99.90;;;;;;5091488;27;20266;-41
2021/12/17 08:32:05;;;;;;;18.07;9.50;;;6.10;99.90;;;;;;5092389;28;20201;-45
2021/12/17 08:34:40;;;;;;;16.20;9.97;;;6.10;99.90;;;;;;5090634;27;20198;-47
2021/12/17 08:37:08;;;;;;;20.90;10.53;;;6.10;99.90;;;;;;5102065;27;20247;-45
2021/12/17 08:39:35;;;;;;;19.50;11.57;;;6.10;99.90;;;;;;5096116;28;20296;-44
2021/12/17 08:42:21;;;;;;;19.33;10.97;;;6.10;99.90;;;;;;5091195;27;20202;-42
2021/12/17 08:44:48;;;;;;;22.63;11.33;;;6.10;99.90;;;;;;5091908;27;20234;-43
2021/12/17 08:47:45;;;;;;;20.60;11.57;;;6.10;99.90;;;;;;5104557;28;20205;-42
2021/12/17 08:50:15;;;;;;;19.77;12.00;;;6.10;99.90;;;;;;5086393;27;20260;-46
2021/12/17 08:52:42;;;;;;;18.93;11.57;;;6.10;99.90;;;;;;5098976;28;20192;-43
2021/12/17 08:55:11;;;;;;;24.63;11.90;;;6.10;99.90;;;;;;5094420;27;20201;-46
2021/12/17 08:57:38;;;;;;;26.63;12.47;;;6.10;99.90;;;;;;5091368;27;20205;-42
2021/12/17 09:00:08;;;;;;;36.50;13.33;;;6.10;99.90;;;;;;5085858;28;20233;-43
2021/12/17 09:02:50;;;;;;;23.43;14.13;;;6.10;99.90;;;;;;5103968;28;20197;-43
2021/12/17 09:05:42;;;;;;;22.60;13.30;;;6.10;99.90;;;;;;5075130;27;20201;-43
2021/12/17 09:08:12;;;;;;;28.23;13.50;;;6.10;99.90;;;;;;5101576;27;20278;-44
2021/12/17 09:10:47;;;;;;;20.77;12.60;;;6.10;99.90;;;;;;5097702;28;20705;-43
2021/12/17 09:13:15;;;;;;;24.90;14.40;;;6.10;99.90;;;;;;5076612;27;20205;-45
2021/12/17 09:15:44;;;;;;;25.30;13.50;;;6.20;99.90;;;;;;5088719;27;20198;-44
2021/12/17 09:18:42;;;;;;;21.40;13.90;;;6.20;99.90;;;;;;5093941;27;20232;-42
2021/12/17 09:21:28;;;;;;;24.03;14.90;;;6.10;99.90;;;;;;5087188;27;20371;-44
2021/12/17 09:24:27;;;;;;;17.70;11.93;;;6.20;99.90;;;;;;5090104;28;20213;-41
2021/12/17 09:27:13;;;;;;;12.40;7.50;;;6.20;99.90;;;;;;5083060;28;20964;-43
2021/12/17 09:30:08;;;;;;;10.87;6.90;;;6.10;99.90;;;;;;5077915;27;20226;-45
2021/12/17 09:32:35;;;;;;;7.10;3.50;;;6.10;99.90;;;;;;5090631;27;20578;-42
2021/12/17 09:35:04;;;;;;;3.77;3.30;;;6.10;99.90;;;;;;5082939;28;20687;-42
2021/12/17 09:37:30;;;;;;;2.60;2.10;;;6.10;99.90;;;;;;5104697;27;20201;-45
2021/12/17 09:39:57;;;;;;;4.23;2.60;;;6.10;99.90;;;;;;5095853;28;20228;-44
2021/12/17 09:42:24;;;;;;;1.50;1.40;;;6.10;99.90;;;;;;5099170;27;20193;-44
2021/12/17 09:44:50;;;;;;;4.47;2.30;;;6.10;99.90;;;;;;5094575;28;20613;-44
2021/12/17 09:47:17;;;;;;;2.27;2.07;;;6.10;99.90;;;;;;5085571;28;20197;-42
2021/12/17 09:49:45;;;;;;;1.97;1.40;;;6.20;99.90;;;;;;5102065;27;20213;-42
2021/12/17 09:52:13;;;;;;;1.33;1.23;;;6.20;99.90;;;;;;5076615;27;20210;-42
2021/12/17 09:54:41;;;;;;;2.03;1.10;;;6.20;99.90;;;;;;5097266;28;20205;-42
2021/12/17 09:57:08;;;;;;;1.23;1.13;;;6.20;99.90;;;;;;5091325;28;20246;-44
2021/12/17 09:59:34;;;;;;;1.57;1.10;;;6.20;99.90;;;;;;5096124;27;20225;-41
2021/12/17 10:02:01;;;;;;;1.17;0.83;;;6.20;99.90;;;;;;5088058;28;20197;-44
2021/12/17 10:04:31;;;;;;;2.03;0.97;;;6.20;99.90;;;;;;5100926;28;20193;-42
2021/12/17 10:07:21;;;;;;;1.20;1.10;;;6.20;99.90;;;;;;5087521;27;20205;-43
2021/12/17 10:09:49;;;;;;;1.13;0.90;;;6.20;99.90;;;;;;5100513;28;20228;-44
2021/12/17 10:12:17;;;;;;;1.53;1.03;;;6.20;99.90;;;;;;5100739;28;20276;-42
2021/12/17 10:14:57;;;;;;;1.40;1.20;;;6.20;99.90;;;;;;5090673;28;20627;-42
2021/12/17 10:17:24;;;;;;;1.60;1.23;;;6.20;99.90;;;;;;5085063;27;20209;-43
2021/12/17 10:19:53;;;;;;;2.30;1.27;;;6.30;99.90;;;;;;5092538;28;20225;-42
2021/12/17 10:22:22;;;;;;;1.47;1.37;;;6.30;99.90;;;;;;5101759;27;20246;-43
2021/12/17 10:24:59;;;;;;;2.73;1.37;;;6.40;99.90;;;;;;5080197;27;20922;-45
2021/12/17 10:27:28;;;;;;;1.17;1.00;;;6.40;99.90;;;;;;5095770;28;20216;-43
2021/12/17 10:29:56;;;;;;;1.50;1.40;;;6.40;99.90;;;;;;5083737;27;20258;-42
2021/12/17 10:32:26;;;;;;;1.47;1.33;;;6.30;99.90;;;;;;5086684;28;20201;-42
2021/12/17 10:35:04;;;;;;;1.87;1.60;;;6.30;99.90;;;;;;5095706;28;20189;-43
2021/12/17 10:37:35;;;;;;;2.33;1.50;;;6.40;99.90;;;;;;5096195;28;20580;-45
2021/12/17 10:40:19;;;;;;;1.73;1.60;;;6.40;99.90;;;;;;5089803;27;20293;-42
2021/12/17 10:42:55;;;;;;;2.20;1.90;;;6.40;99.90;;;;;;5098403;28;20204;-46
2021/12/17 10:45:26;;;;;;;2.67;2.17;;;6.30;99.90;;;;;;5091985;28;20277;-42
2021/12/17 10:48:25;;;;;;;2.67;1.60;;;6.40;99.90;;;;;;5077276;28;21260;-42
2021/12/17 10:50:54;;;;;;;2.70;2.30;;;6.40;99.90;;;;;;5097734;28;20285;-42
2021/12/17 10:53:26;;;;;;;2.47;2.27;;;6.40;99.90;;;;;;5106465;27;20200;-44
2021/12/17 10:55:53;;;;;;;7.57;4.53;;;6.50;99.90;;;;;;5084484;27;20212;-42
2021/12/17 10:58:21;;;;;;;7.73;4.63;;;6.50;99.90;;;;;;5099178;28;20205;-43
2021/12/17 11:00:50;;;;;;;6.30;4.90;;;6.50;99.90;;;;;;5083336;27;20210;-45
2021/12/17 11:03:17;;;;;;;6.00;5.40;;;6.50;99.90;;;;;;5085806;28;20216;-46
2021/12/17 11:05:44;;;;;;;5.13;4.33;;;6.60;99.90;;;;;;5088119;28;20205;-44
2021/12/17 11:08:28;;;;;;;6.97;4.03;;;6.60;99.90;;;;;;5101468;28;20208;-42
2021/12/17 11:11:00;;;;;;;6.30;4.00;;;6.60;99.90;;;;;;5080459;28;20937;-45
2021/12/17 11:13:27;;;;;;;4.67;3.47;;;6.70;99.90;;;;;;5099420;28;20201;-42
2021/12/17 11:15:54;;;;;;;4.23;2.90;;;6.70;99.90;;;;;;5082597;28;20905;-42
2021/12/17 11:18:25;;;;;;;3.83;3.07;;;6.70;99.90;;;;;;5090307;28;20673;-42
2021/12/17 11:20:53;;;;;;;3.17;2.87;;;6.70;99.90;;;;;;5090176;28;21752;-42
2021/12/17 11:23:22;;;;;;;3.83;3.30;;;6.70;99.90;;;;;;5098713;28;20204;-42
2021/12/17 11:25:53;;;;;;;7.03;4.07;;;6.80;99.90;;;;;;5094087;28;20201;-42
2021/12/17 11:28:21;;;;;;;5.40;3.43;;;6.80;99.90;;;;;;5088574;28;20241;-41
2021/12/17 11:30:50;;;;;;;4.40;3.33;;;6.90;99.90;;;;;;5088370;28;20226;-45
2021/12/17 11:33:17;;;;;;;5.43;3.53;;;6.80;99.90;;;;;;5095590;28;20208;-44
2021/12/17 11:35:47;;;;;;;4.17;3.33;;;6.80;99.90;;;;;;5084797;28;20201;-42
2021/12/17 11:38:16;;;;;;;5.00;4.07;;;6.80;99.90;;;;;;5095617;28;20202;-42
2021/12/17 11:40:47;;;;;;;10.63;7.27;;;6.90;99.90;;;;;;5092276;28;20198;-42
2021/12/17 11:43:47;;;;;;;12.80;8.17;;;6.90;99.90;;;;;;5080640;28;20206;-44
2021/12/17 11:46:14;;;;;;;16.37;9.30;;;6.90;99.90;;;;;;5096473;28;20193;-42
2021/12/17 11:48:48;;;;;;;14.93;9.23;;;6.90;99.90;;;;;;5074828;28;20213;-43
2021/12/17 11:51:19;;;;;;;20.53;10.10;;;6.90;99.90;;;;;;5094325;28;20230;-44
2021/12/17 11:54:07;;;;;;;19.33;10.60;;;6.90;99.90;;;;;;5087107;28;20200;-43
2021/12/17 11:56:41;;;;;;;12.47;8.47;;;7.00;99.90;;;;;;5097736;28;20208;-42
2021/12/17 11:59:31;;;;;;;10.90;7.43;;;6.90;99.90;;;;;;5093034;27;20602;-44
2021/12/17 12:02:02;;;;;;;10.50;6.13;;;6.90;99.90;;;;;;5092675;27;22508;-42
2021/12/17 12:04:50;;;;;;;11.00;6.90;;;6.90;99.90;;;;;;5099086;28;20197;-41
2021/12/17 12:07:18;;;;;;;12.40;6.37;;;6.90;99.90;;;;;;5100806;28;20213;-43
2021/12/17 12:09:57;;;;;;;11.70;6.47;;;6.90;99.90;;;;;;5095318;27;20229;-43
2021/12/17 12:12:27;;;;;;;9.20;6.53;;;7.00;99.90;;;;;;5099316;28;20240;-43
2021/12/17 12:14:56;;;;;;;7.30;5.40;;;6.90;99.90;;;;;;5086717;27;20193;-42
2021/12/17 12:18:03;;;;;;;7.93;5.63;;;7.00;99.90;;;;;;5095488;27;20277;-44
2021/12/17 12:20:41;;;;;;;7.83;5.50;;;6.90;99.90;;;;;;5094953;27;21060;-42
2021/12/17 12:23:16;;;;;;;7.03;5.30;;;6.90;99.90;;;;;;5103820;28;20197;-42
2021/12/17 12:25:43;;;;;;;10.23;6.23;;;6.90;99.90;;;;;;5088311;27;20300;-43
2021/12/17 12:28:13;;;;;;;9.27;5.83;;;7.00;99.90;;;;;;5096242;28;20201;-43
2021/12/17 12:30:43;;;;;;;9.63;5.10;;;7.00;99.90;;;;;;5072061;27;20693;-44
2021/12/17 12:33:13;;;;;;;7.83;4.97;;;7.00;99.90;;;;;;5098810;28;20195;-44
2021/12/17 12:35:40;;;;;;;9.13;4.57;;;7.00;99.90;;;;;;5105256;28;20197;-44
2021/12/17 12:38:14;;;;;;;5.37;4.17;;;7.00;99.90;;;;;;5088705;27;20302;-43
2021/12/17 12:40:45;;;;;;;5.03;3.47;;;6.90;99.90;;;;;;5089206;28;20221;-50
2021/12/17 12:43:26;;;;;;;8.20;4.47;;;7.00;99.90;;;;;;5096957;28;20898;-43
2021/12/17 12:45:54;;;;;;;6.10;4.17;;;7.00;99.90;;;;;;5080791;27;20212;-45
2021/12/17 12:48:33;;;;;;;5.50;3.53;;;7.00;99.90;;;;;;5100716;28;20220;-44
2021/12/17 12:51:17;;;;;;;7.13;3.33;;;7.10;99.90;;;;;;5096093;28;20894;-45
2021/12/17 12:53:48;;;;;;;4.30;3.57;;;7.10;99.90;;;;;;5086937;27;20212;-46
2021/12/17 12:56:19;;;;;;;4.37;3.10;;;7.10;99.90;;;;;;5084382;27;20205;-43
2021/12/17 12:58:51;;;;;;;7.57;4.00;;;7.10;99.90;;;;;;5083595;27;20317;-45
2021/12/17 13:01:20;;;;;;;5.07;4.10;;;7.10;99.90;;;;;;5074801;27;20216;-43
2021/12/17 13:03:48;;;;;;;6.40;3.53;;;7.20;99.90;;;;;;5095444;28;20322;-43
2021/12/17 13:06:17;;;;;;;7.57;3.70;;;7.20;99.90;;;;;;5102665;28;20700;-43
2021/12/17 13:08:44;;;;;;;6.47;4.17;;;7.30;99.90;;;;;;5086311;28;20217;-43
2021/12/17 13:11:12;;;;;;;5.77;4.23;;;7.30;99.90;;;;;;5103600;28;20236;-44
2021/12/17 13:13:45;;;;;;;6.30;3.93;;;7.30;99.90;;;;;;5097125;27;20689;-46
2021/12/17 13:16:18;;;;;;;6.17;4.00;;;7.30;99.90;;;;;;5088710;27;20205;-44
2021/12/17 13:21:36;;;;;;;8.80;4.00;;;7.40;99.90;;;;;;5100241;28;20216;-48
2021/12/17 13:24:12;;;;;;;5.57;3.70;;;7.40;99.90;;;;;;5089961;28;20194;-47
2021/12/17 13:26:40;;;;;;;6.00;4.33;;;7.40;99.90;;;;;;5076142;27;21147;-48
2021/12/17 13:29:11;;;;;;;7.20;4.70;;;7.40;99.90;;;;;;5097375;28;20205;-44
2021/12/17 13:31:48;;;;;;;8.17;4.67;;;7.50;99.90;;;;;;5077996;27;20309;-47
2021/12/17 13:34:24;;;;;;;7.30;5.07;;;7.50;99.90;;;;;;5090706;28;20314;-45
2021/12/17 13:36:57;;;;;;;6.80;5.00;;;7.50;99.90;;;;;;5095529;28;20708;-44
2021/12/17 13:39:26;;;;;;;8.63;4.93;;;7.50;99.90;;;;;;5092212;27;20212;-44
2021/12/17 13:41:53;;;;;;;9.30;5.87;;;7.60;99.90;;;;;;5101402;28;20186;-43
2021/12/17 13:44:33;;;;;;;10.33;5.83;;;7.50;99.90;;;;;;5102167;28;20212;-46
2021/12/17 13:47:11;;;;;;;11.77;6.63;;;7.60;99.90;;;;;;5087473;28;20287;-43
2021/12/17 13:49:41;;;;;;;11.37;7.07;;;7.60;99.90;;;;;;5082046;27;20792;-43
2021/12/17 13:52:09;;;;;;;10.80;7.00;;;7.60;99.90;;;;;;5100896;28;20221;-43
2021/12/17 13:54:36;;;;;;;11.40;6.83;;;7.60;99.90;;;;;;5091643;28;20937;-46
2021/12/17 13:57:05;;;;;;;12.00;6.40;;;7.70;99.90;;;;;;5100184;28;20204;-43
2021/12/17 13:59:33;;;;;;;13.63;6.47;;;7.70;99.90;;;;;;5096144;28;20202;-46
2021/12/17 14:02:07;;;;;;;12.47;6.60;;;7.70;99.90;;;;;;5093789;28;20247;-46
2021/12/17 14:04:34;;;;;;;9.43;6.00;;;7.70;99.90;;;;;;5085138;27;20290;-47
2021/12/17 14:07:06;;;;;;;11.23;5.97;;;7.70;99.90;;;;;;5102348;28;20557;-47
2021/12/17 14:09:32;;;;;;;11.60;7.00;;;7.70;99.90;;;;;;5092663;27;20684;-47
2021/12/17 14:12:08;;;;;;;12.33;6.40;;;7.80;99.90;;;;;;5102661;27;20217;-43
2021/12/17 14:14:35;;;;;;;10.07;6.37;;;7.80;99.90;;;;;;5096360;28;20197;-48
2021/12/17 14:17:04;;;;;;;8.73;6.27;;;7.80;99.90;;;;;;5087212;28;20213;-44
2021/12/17 14:19:39;;;;;;;13.00;7.03;;;7.80;99.90;;;;;;5084090;27;20583;-46
2021/12/17 14:22:25;;;;;;;11.63;6.73;;;7.80;99.90;;;;;;5099713;28;20204;-45
2021/12/17 14:24:52;;;;;;;11.70;6.83;;;7.80;99.90;;;;;;5101032;28;20209;-42
2021/12/17 14:27:19;;;;;;;9.70;6.67;;;7.80;99.90;;;;;;5093566;28;20288;-44
2021/12/17 14:29:46;;;;;;;12.73;6.77;;;7.90;99.90;;;;;;5098740;28;20896;-45
2021/12/17 14:32:21;;;;;;;12.33;7.13;;;7.90;99.90;;;;;;5098069;28;20716;-44
2021/12/17 14:34:48;;;;;;;10.03;6.00;;;7.90;99.90;;;;;;5082923;27;20339;-43
2021/12/17 14:37:14;;;;;;;10.37;6.70;;;7.90;99.90;;;;;;5102147;28;20201;-45
2021/12/17 14:39:46;;;;;;;8.67;5.77;;;7.90;99.90;;;;;;5069576;27;20948;-47
2021/12/17 14:42:29;;;;;;;11.83;5.23;;;7.90;99.90;;;;;;5084868;28;20212;-43
2021/12/17 14:45:04;;;;;;;7.97;5.77;;;8.00;99.90;;;;;;5085200;28;20194;-45
2021/12/17 14:47:36;;;;;;;10.20;6.90;;;8.00;99.90;;;;;;5095593;28;20194;-43
2021/12/17 15:01:14;;;;;;;6.53;5.20;;;8.10;99.90;;;;;;5094332;28;20228;-45
2021/12/17 15:03:42;;;;;;;6.80;4.87;;;8.10;99.90;;;;;;5091492;28;20219;-44
2021/12/17 15:06:10;;;;;;;7.13;5.43;;;8.10;99.90;;;;;;5097726;28;20337;-44
2021/12/17 15:08:37;;;;;;;5.43;4.67;;;8.10;99.90;;;;;;5092876;28;20229;-43
2021/12/17 15:11:13;;;;;;;6.13;4.53;;;8.10;99.90;;;;;;5101152;28;20608;-44
2021/12/17 15:13:40;;;;;;;5.13;4.27;;;8.10;99.90;;;;;;5088803;28;20292;-44
2021/12/17 15:16:06;;;;;;;4.77;4.07;;;8.10;99.90;;;;;;5094675;28;20190;-43
2021/12/17 15:18:33;;;;;;;4.20;3.67;;;8.10;99.90;;;;;;5090546;28;20201;-44
2021/12/17 15:21:00;;;;;;;5.57;4.30;;;8.10;99.90;;;;;;5094238;28;20593;-46
2021/12/17 15:23:26;;;;;;;6.60;4.13;;;8.10;99.90;;;;;;5084884;28;20201;-44
2021/12/17 15:25:55;;;;;;;4.77;3.93;;;8.10;99.90;;;;;;5100255;28;20207;-47
2021/12/17 15:28:26;;;;;;;4.33;3.73;;;8.10;99.90;;;;;;5090777;28;20209;-48
2021/12/17 15:30:55;;;;;;;5.20;3.90;;;8.00;99.90;;;;;;5098481;28;20303;-46
2021/12/17 15:33:22;;;;;;;5.83;4.00;;;8.00;99.90;;;;;;5086237;27;21409;-47
2021/12/17 15:35:50;;;;;;;4.70;3.43;;;8.10;99.90;;;;;;5098972;27;20197;-44